sensor_id;sensor_type;location;lat;lon;timestamp;P1;P2;P0
66159;PMS5003;52960;50.810;20.620;2022-07-22T00:07:18;19;15;9
66159;PMS5003;52960;50.810;20.620;2022-07-22T00:14:18;19;15;9
66159;PMS5003;52960;50.810;20.620;2022-07-22T00:21:13;19;15;9
66159;PMS5003;52960;50.810;20.620;2022-07-22T00:28:14;19;15;9
66159;PMS5003;52960;50.810;20.620;2022-07-22T00:35:06;15;13;8
66159;PMS5003;52960;50.810;20.620;2022-07-22T00:42:06;15;13;8
66159;PMS5003;52960;50.810;20.620;2022-07-22T00:49:31;15;13;8
66159;PMS5003;52960;50.810;20.620;2022-07-22T00:56:22;15;13;8
66159;PMS5003;52960;50.810;20.620;2022-07-22T01:00:28;15;13;8
66159;PMS5003;52960;50.810;20.620;2022-07-22T01:07:04;14;13;9
66159;PMS5003;52960;50.810;20.620;2022-07-22T01:14:18;14;13;9
66159;PMS5003;52960;50.810;20.620;2022-07-22T01:21:12;14;13;9
66159;PMS5003;52960;50.810;20.620;2022-07-22T01:28:03;14;13;9
66159;PMS5003;52960;50.810;20.620;2022-07-22T01:35:04;11;10;7
66159;PMS5003;52960;50.810;20.620;2022-07-22T01:42:16;11;10;7
66159;PMS5003;52960;50.810;20.620;2022-07-22T01:49:22;11;10;7
66159;PMS5003;52960;50.810;20.620;2022-07-22T01:56:04;11;10;7
66159;PMS5003;52960;50.810;20.620;2022-07-22T02:00:05;11;10;7
66159;PMS5003;52960;50.810;20.620;2022-07-22T02:07:06;11;9;7
66159;PMS5003;52960;50.810;20.620;2022-07-22T02:14:03;11;9;7
66159;PMS5003;52960;50.810;20.620;2022-07-22T02:21:20;11;9;7
66159;PMS5003;52960;50.810;20.620;2022-07-22T02:28:03;11;9;7
66159;PMS5003;52960;50.810;20.620;2022-07-22T02:35:09;11;9;6
66159;PMS5003;52960;50.810;20.620;2022-07-22T02:42:15;11;9;6
66159;PMS5003;52960;50.810;20.620;2022-07-22T02:49:19;11;9;6
66159;PMS5003;52960;50.810;20.620;2022-07-22T02:56:07;11;9;6
66159;PMS5003;52960;50.810;20.620;2022-07-22T03:00:18;11;9;6
66159;PMS5003;52960;50.810;20.620;2022-07-22T03:07:16;12;12;8
66159;PMS5003;52960;50.810;20.620;2022-07-22T03:14:19;12;12;8
66159;PMS5003;52960;50.810;20.620;2022-07-22T03:21:17;12;12;8
66159;PMS5003;52960;50.810;20.620;2022-07-22T03:28:04;12;12;8
66159;PMS5003;52960;50.810;20.620;2022-07-22T03:35:03;11;11;7
66159;PMS5003;52960;50.810;20.620;2022-07-22T03:42:05;11;11;7
66159;PMS5003;52960;50.810;20.620;2022-07-22T03:49:20;11;11;7
66159;PMS5003;52960;50.810;20.620;2022-07-22T03:56:02;11;11;7
66159;PMS5003;52960;50.810;20.620;2022-07-22T04:00:15;11;11;7
66159;PMS5003;52960;50.810;20.620;2022-07-22T04:07:03;17;14;8
66159;PMS5003;52960;50.810;20.620;2022-07-22T04:14:13;17;14;8
66159;PMS5003;52960;50.810;20.620;2022-07-22T04:21:14;17;14;8
66159;PMS5003;52960;50.810;20.620;2022-07-22T04:28:17;17;14;8
66159;PMS5003;52960;50.810;20.620;2022-07-22T04:35:12;14;12;8
66159;PMS5003;52960;50.810;20.620;2022-07-22T04:42:05;14;12;8
66159;PMS5003;52960;50.810;20.620;2022-07-22T04:49:22;14;12;8
66159;PMS5003;52960;50.810;20.620;2022-07-22T04:56:19;14;12;8
66159;PMS5003;52960;50.810;20.620;2022-07-22T05:00:00;14;12;8
66159;PMS5003;52960;50.810;20.620;2022-07-22T05:07:16;10;10;8
66159;PMS5003;52960;50.810;20.620;2022-07-22T05:14:05;10;10;8
66159;PMS5003;52960;50.810;20.620;2022-07-22T05:21:04;10;10;8
66159;PMS5003;52960;50.810;20.620;2022-07-22T05:28:12;10;10;8
66159;PMS5003;52960;50.810;20.620;2022-07-22T05:35:02;8;7;4
66159;PMS5003;52960;50.810;20.620;2022-07-22T05:42:06;8;7;4
66159;PMS5003;52960;50.810;20.620;2022-07-22T05:49:27;8;7;4
66159;PMS5003;52960;50.810;20.620;2022-07-22T05:56:17;8;7;4
66159;PMS5003;52960;50.810;20.620;2022-07-22T06:00:07;8;7;4
66159;PMS5003;52960;50.810;20.620;2022-07-22T06:07:17;9;7;6
66159;PMS5003;52960;50.810;20.620;2022-07-22T06:14:18;9;7;6
66159;PMS5003;52960;50.810;20.620;2022-07-22T06:21:04;9;7;6
66159;PMS5003;52960;50.810;20.620;2022-07-22T06:28:17;9;7;6
66159;PMS5003;52960;50.810;20.620;2022-07-22T06:35:02;14;10;7
66159;PMS5003;52960;50.810;20.620;2022-07-22T06:42:04;14;10;7
66159;PMS5003;52960;50.810;20.620;2022-07-22T06:49:02;14;10;7
66159;PMS5003;52960;50.810;20.620;2022-07-22T06:56:18;14;10;7
66159;PMS5003;52960;50.810;20.620;2022-07-22T07:00:08;14;10;7
66159;PMS5003;52960;50.810;20.620;2022-07-22T07:07:03;5;4;4
66159;PMS5003;52960;50.810;20.620;2022-07-22T07:14:15;5;4;4
66159;PMS5003;52960;50.810;20.620;2022-07-22T07:21:17;5;4;4
66159;PMS5003;52960;50.810;20.620;2022-07-22T07:28:13;5;4;4
66159;PMS5003;52960;50.810;20.620;2022-07-22T07:35:07;4;4;2
66159;PMS5003;52960;50.810;20.620;2022-07-22T07:42:16;4;4;2
66159;PMS5003;52960;50.810;20.620;2022-07-22T07:49:03;4;4;2
66159;PMS5003;52960;50.810;20.620;2022-07-22T07:56:02;4;4;2
66159;PMS5003;52960;50.810;20.620;2022-07-22T08:00:24;4;4;2
66159;PMS5003;52960;50.810;20.620;2022-07-22T08:07:07;6;6;4
66159;PMS5003;52960;50.810;20.620;2022-07-22T08:14:06;6;6;4
66159;PMS5003;52960;50.810;20.620;2022-07-22T08:21:04;6;6;4
66159;PMS5003;52960;50.810;20.620;2022-07-22T08:28:17;6;6;4
66159;PMS5003;52960;50.810;20.620;2022-07-22T08:42:17;5;5;4
66159;PMS5003;52960;50.810;20.620;2022-07-22T08:49:07;5;5;4
66159;PMS5003;52960;50.810;20.620;2022-07-22T08:56:20;5;5;4
66159;PMS5003;52960;50.810;20.620;2022-07-22T09:00:25;5;5;4
66159;PMS5003;52960;50.810;20.620;2022-07-22T09:14:03;7;5;4
66159;PMS5003;52960;50.810;20.620;2022-07-22T09:21:04;7;5;4
66159;PMS5003;52960;50.810;20.620;2022-07-22T09:28:21;7;5;4
66159;PMS5003;52960;50.810;20.620;2022-07-22T09:42:19;5;5;3
66159;PMS5003;52960;50.810;20.620;2022-07-22T09:49:06;5;5;3
66159;PMS5003;52960;50.810;20.620;2022-07-22T09:56:18;5;5;3
66159;PMS5003;52960;50.810;20.620;2022-07-22T10:00:09;5;5;3
66159;PMS5003;52960;50.810;20.620;2022-07-22T10:14:18;23;12;6
66159;PMS5003;52960;50.810;20.620;2022-07-22T10:21:06;23;12;6
66159;PMS5003;52960;50.810;20.620;2022-07-22T10:28:29;23;12;6
66159;PMS5003;52960;50.810;20.620;2022-07-22T10:35:34;23;12;6
66159;PMS5003;52960;50.810;20.620;2022-07-22T10:42:16;5;5;4
66159;PMS5003;52960;50.810;20.620;2022-07-22T10:49:27;5;5;4
66159;PMS5003;52960;50.810;20.620;2022-07-22T10:56:42;5;5;4
66159;PMS5003;52960;50.810;20.620;2022-07-22T11:00:13;5;5;4
66159;PMS5003;52960;50.810;20.620;2022-07-22T11:14:03;8;7;4
66159;PMS5003;52960;50.810;20.620;2022-07-22T11:21:04;8;7;4
66159;PMS5003;52960;50.810;20.620;2022-07-22T11:28:04;8;7;4
66159;PMS5003;52960;50.810;20.620;2022-07-22T11:35:10;8;7;4
66159;PMS5003;52960;50.810;20.620;2022-07-22T11:42:04;7;7;6
66159;PMS5003;52960;50.810;20.620;2022-07-22T11:49:34;7;7;6
66159;PMS5003;52960;50.810;20.620;2022-07-22T11:56:25;7;7;6
66159;PMS5003;52960;50.810;20.620;2022-07-22T12:00:12;7;7;6
66159;PMS5003;52960;50.810;20.620;2022-07-22T12:14:18;10;9;7
66159;PMS5003;52960;50.810;20.620;2022-07-22T12:21:08;10;9;7
66159;PMS5003;52960;50.810;20.620;2022-07-22T12:28:02;10;9;7
66159;PMS5003;52960;50.810;20.620;2022-07-22T12:35:09;10;9;7
66159;PMS5003;52960;50.810;20.620;2022-07-22T12:42:38;9;9;7
66159;PMS5003;52960;50.810;20.620;2022-07-22T12:49:04;9;9;7
66159;PMS5003;52960;50.810;20.620;2022-07-22T12:56:14;9;9;7
66159;PMS5003;52960;50.810;20.620;2022-07-22T13:00:08;9;9;7
66159;PMS5003;52960;50.810;20.620;2022-07-22T13:07:14;9;9;7
66159;PMS5003;52960;50.810;20.620;2022-07-22T13:14:06;15;13;9
66159;PMS5003;52960;50.810;20.620;2022-07-22T13:21:14;15;13;9
66159;PMS5003;52960;50.810;20.620;2022-07-22T13:28:06;15;13;9
66159;PMS5003;52960;50.810;20.620;2022-07-22T13:35:15;15;13;9
66159;PMS5003;52960;50.810;20.620;2022-07-22T13:42:18;12;11;7
66159;PMS5003;52960;50.810;20.620;2022-07-22T13:49:23;12;11;7
66159;PMS5003;52960;50.810;20.620;2022-07-22T13:56:04;12;11;7
66159;PMS5003;52960;50.810;20.620;2022-07-22T14:00:25;12;11;7
66159;PMS5003;52960;50.810;20.620;2022-07-22T14:07:06;12;11;7
66159;PMS5003;52960;50.810;20.620;2022-07-22T14:14:04;9;8;6
66159;PMS5003;52960;50.810;20.620;2022-07-22T14:21:03;9;8;6
66159;PMS5003;52960;50.810;20.620;2022-07-22T14:28:17;9;8;6
66159;PMS5003;52960;50.810;20.620;2022-07-22T14:35:02;9;8;6
66159;PMS5003;52960;50.810;20.620;2022-07-22T14:42:02;11;10;7
66159;PMS5003;52960;50.810;20.620;2022-07-22T14:49:05;11;10;7
66159;PMS5003;52960;50.810;20.620;2022-07-22T14:56:18;11;10;7
66159;PMS5003;52960;50.810;20.620;2022-07-22T15:00:21;11;10;7
66159;PMS5003;52960;50.810;20.620;2022-07-22T15:07:04;11;10;7
66159;PMS5003;52960;50.810;20.620;2022-07-22T15:14:15;15;12;7
66159;PMS5003;52960;50.810;20.620;2022-07-22T15:21:01;15;12;7
66159;PMS5003;52960;50.810;20.620;2022-07-22T15:28:20;15;12;7
66159;PMS5003;52960;50.810;20.620;2022-07-22T15:35:03;15;12;7
66159;PMS5003;52960;50.810;20.620;2022-07-22T15:42:17;14;10;7
66159;PMS5003;52960;50.810;20.620;2022-07-22T15:49:06;14;10;7
66159;PMS5003;52960;50.810;20.620;2022-07-22T15:56:04;14;10;7
66159;PMS5003;52960;50.810;20.620;2022-07-22T16:00:19;14;10;7
66159;PMS5003;52960;50.810;20.620;2022-07-22T16:07:18;14;10;7
66159;PMS5003;52960;50.810;20.620;2022-07-22T16:14:17;13;12;8
66159;PMS5003;52960;50.810;20.620;2022-07-22T16:21:25;13;12;8
66159;PMS5003;52960;50.810;20.620;2022-07-22T16:28:04;13;12;8
66159;PMS5003;52960;50.810;20.620;2022-07-22T16:35:09;13;12;8
66159;PMS5003;52960;50.810;20.620;2022-07-22T16:42:01;12;12;7
66159;PMS5003;52960;50.810;20.620;2022-07-22T16:49:04;12;12;7
66159;PMS5003;52960;50.810;20.620;2022-07-22T16:56:16;12;12;7
66159;PMS5003;52960;50.810;20.620;2022-07-22T17:00:02;12;12;7
66159;PMS5003;52960;50.810;20.620;2022-07-22T17:07:03;12;12;7
66159;PMS5003;52960;50.810;20.620;2022-07-22T17:14:02;13;10;6
66159;PMS5003;52960;50.810;20.620;2022-07-22T17:21:25;13;10;6
66159;PMS5003;52960;50.810;20.620;2022-07-22T17:28:04;13;10;6
66159;PMS5003;52960;50.810;20.620;2022-07-22T17:35:10;13;10;6
66159;PMS5003;52960;50.810;20.620;2022-07-22T17:42:03;15;9;6
66159;PMS5003;52960;50.810;20.620;2022-07-22T17:49:02;15;9;6
66159;PMS5003;52960;50.810;20.620;2022-07-22T17:56:05;15;9;6
66159;PMS5003;52960;50.810;20.620;2022-07-22T18:00:03;15;9;6
66159;PMS5003;52960;50.810;20.620;2022-07-22T18:07:07;15;9;6
66159;PMS5003;52960;50.810;20.620;2022-07-22T18:21:03;13;11;8
66159;PMS5003;52960;50.810;20.620;2022-07-22T18:28:02;13;11;8
66159;PMS5003;52960;50.810;20.620;2022-07-22T18:35:08;13;11;8
66159;PMS5003;52960;50.810;20.620;2022-07-22T18:49:21;13;12;9
66159;PMS5003;52960;50.810;20.620;2022-07-22T18:56:04;13;12;9
66159;PMS5003;52960;50.810;20.620;2022-07-22T19:00:11;13;12;9
66159;PMS5003;52960;50.810;20.620;2022-07-22T19:07:16;13;12;9
66159;PMS5003;52960;50.810;20.620;2022-07-22T19:21:17;18;14;10
66159;PMS5003;52960;50.810;20.620;2022-07-22T19:28:07;18;14;10
66159;PMS5003;52960;50.810;20.620;2022-07-22T19:35:19;18;14;10
66159;PMS5003;52960;50.810;20.620;2022-07-22T19:49:23;13;11;8
66159;PMS5003;52960;50.810;20.620;2022-07-22T19:56:17;13;11;8
66159;PMS5003;52960;50.810;20.620;2022-07-22T20:00:04;13;11;8
66159;PMS5003;52960;50.810;20.620;2022-07-22T20:07:02;13;11;8
66159;PMS5003;52960;50.810;20.620;2022-07-22T20:21:17;15;14;10
66159;PMS5003;52960;50.810;20.620;2022-07-22T20:28:02;15;14;10
66159;PMS5003;52960;50.810;20.620;2022-07-22T20:35:06;15;14;10
66159;PMS5003;52960;50.810;20.620;2022-07-22T20:49:06;15;14;10
66159;PMS5003;52960;50.810;20.620;2022-07-22T20:56:16;15;14;10
66159;PMS5003;52960;50.810;20.620;2022-07-22T21:00:09;15;14;10
66159;PMS5003;52960;50.810;20.620;2022-07-22T21:07:15;15;14;10
66159;PMS5003;52960;50.810;20.620;2022-07-22T21:21:02;24;23;12
66159;PMS5003;52960;50.810;20.620;2022-07-22T21:28:06;24;23;12
66159;PMS5003;52960;50.810;20.620;2022-07-22T21:35:17;24;23;12
66159;PMS5003;52960;50.810;20.620;2022-07-22T21:49:02;20;15;12
66159;PMS5003;52960;50.810;20.620;2022-07-22T22:00:10;20;15;12
66159;PMS5003;52960;50.810;20.620;2022-07-22T22:07:16;20;15;12
66159;PMS5003;52960;50.810;20.620;2022-07-22T22:14:03;25;19;12
66159;PMS5003;52960;50.810;20.620;2022-07-22T22:21:20;25;19;12
66159;PMS5003;52960;50.810;20.620;2022-07-22T22:28:14;25;19;12
66159;PMS5003;52960;50.810;20.620;2022-07-22T22:42:17;26;23;13
66159;PMS5003;52960;50.810;20.620;2022-07-22T22:49:03;26;23;13
66159;PMS5003;52960;50.810;20.620;2022-07-22T22:56:22;26;23;13
66159;PMS5003;52960;50.810;20.620;2022-07-22T23:07:14;27;19;13
66159;PMS5003;52960;50.810;20.620;2022-07-22T23:14:17;27;19;13
66159;PMS5003;52960;50.810;20.620;2022-07-22T23:21:03;27;19;13
66159;PMS5003;52960;50.810;20.620;2022-07-22T23:28:18;27;19;13
66159;PMS5003;52960;50.810;20.620;2022-07-22T23:35:15;29;24;15
66159;PMS5003;52960;50.810;20.620;2022-07-22T23:42:03;29;24;15
66159;PMS5003;52960;50.810;20.620;2022-07-22T23:49:05;29;24;15
66159;PMS5003;52960;50.810;20.620;2022-07-22T23:56:06;29;24;15
